Time;durP1;ratioP1;P1;durP2;ratioP2;P2;SDS_P1;SDS_P2;PMS_P1;PMS_P2;Temp;Humidity;BMP_temperature;BMP_pressure;BME280_temperature;BME280_humidity;BME280_pressure;Samples;Min_cycle;Max_cycle;Signal;HPM_P1;HPM_P2
2021/10/26 00:00:12;;;;;;;4.27;2.70;;;10.90;99.90;;;;;;5062521;28;20206;-83
2021/10/26 00:02:38;;;;;;;3.50;3.20;;;10.90;99.90;;;;;;5064599;28;20638;-82
2021/10/26 00:05:05;;;;;;;6.50;2.90;;;10.90;99.90;;;;;;5062856;28;20414;-82
2021/10/26 00:07:31;;;;;;;4.33;2.40;;;10.90;99.90;;;;;;5062766;28;20178;-82
2021/10/26 00:09:57;;;;;;;6.70;3.30;;;10.90;99.90;;;;;;5063778;28;20420;-83
2021/10/26 00:12:23;;;;;;;7.53;3.23;;;10.90;99.90;;;;;;5064354;28;20958;-83
2021/10/26 00:14:49;;;;;;;5.30;3.63;;;10.90;99.90;;;;;;5064132;28;20192;-83
2021/10/26 00:17:15;;;;;;;5.50;3.20;;;10.90;99.90;;;;;;5062787;28;20186;-83
2021/10/26 00:19:41;;;;;;;6.70;3.00;;;10.90;99.90;;;;;;5071050;28;20822;-83
2021/10/26 00:22:07;;;;;;;5.67;3.20;;;10.90;99.90;;;;;;5074085;28;20413;-83
2021/10/26 00:24:33;;;;;;;7.37;4.73;;;10.90;99.90;;;;;;5074211;28;20469;-83
2021/10/26 00:26:59;;;;;;;8.07;4.27;;;10.90;99.90;;;;;;5074357;28;20185;-83
2021/10/26 00:29:24;;;;;;;6.43;3.47;;;10.90;99.90;;;;;;5055449;28;20419;-83
2021/10/26 00:31:50;;;;;;;6.97;4.10;;;10.90;99.90;;;;;;5074004;28;20167;-83
2021/10/26 00:34:16;;;;;;;5.20;4.30;;;10.90;99.90;;;;;;5074366;28;20200;-83
2021/10/26 00:36:45;;;;;;;5.70;3.47;;;10.90;99.90;;;;;;5074242;28;20223;-83
2021/10/26 00:39:10;;;;;;;5.37;3.13;;;10.80;99.90;;;;;;5074169;28;20192;-83
2021/10/26 00:41:36;;;;;;;6.70;3.60;;;10.80;99.90;;;;;;5074047;28;20424;-83
2021/10/26 00:44:02;;;;;;;5.57;3.80;;;10.80;99.90;;;;;;5073898;28;20684;-83
2021/10/26 00:46:33;;;;;;;7.33;4.33;;;10.70;99.90;;;;;;5073627;28;20169;-83
2021/10/26 00:49:00;;;;;;;7.03;4.13;;;10.80;99.90;;;;;;5073287;28;20197;-83
2021/10/26 00:51:28;;;;;;;7.37;3.83;;;10.80;99.90;;;;;;5073544;28;20420;-83
2021/10/26 00:53:57;;;;;;;5.23;3.60;;;10.80;99.90;;;;;;5054936;28;21153;-83
2021/10/26 00:56:24;;;;;;;6.27;4.23;;;10.80;99.90;;;;;;5073741;28;20449;-83
2021/10/26 00:58:50;;;;;;;5.33;3.73;;;10.80;99.90;;;;;;5073724;28;20419;-83
2021/10/26 01:01:16;;;;;;;6.33;3.70;;;10.80;99.90;;;;;;5073255;28;20491;-83
2021/10/26 01:03:42;;;;;;;8.00;4.43;;;10.80;99.90;;;;;;5055346;28;20993;-83
2021/10/26 01:06:08;;;;;;;8.73;4.47;;;10.80;99.90;;;;;;5055719;28;20184;-83
2021/10/26 01:08:35;;;;;;;8.07;4.73;;;10.80;99.90;;;;;;5073571;28;20174;-83
2021/10/26 01:11:00;;;;;;;8.10;4.47;;;10.80;99.90;;;;;;5055793;28;20430;-83
2021/10/26 01:13:27;;;;;;;9.27;5.10;;;10.80;99.90;;;;;;5073477;28;20412;-83
2021/10/26 01:15:56;;;;;;;12.50;4.17;;;10.80;99.90;;;;;;5073175;28;20178;-84
2021/10/26 01:18:22;;;;;;;8.73;5.10;;;10.80;99.90;;;;;;5055555;28;20423;-83
2021/10/26 01:20:47;;;;;;;7.10;4.20;;;10.80;99.90;;;;;;5073357;28;20464;-83
2021/10/26 01:23:14;;;;;;;9.23;5.47;;;10.80;99.90;;;;;;5073382;28;20403;-83
2021/10/26 01:25:40;;;;;;;7.70;6.07;;;10.70;99.90;;;;;;5073384;28;20168;-84
2021/10/26 01:28:06;;;;;;;6.87;4.30;;;10.70;99.90;;;;;;5073255;28;20408;-83
2021/10/26 01:30:35;;;;;;;7.70;5.60;;;10.60;99.90;;;;;;5073001;28;20670;-81
2021/10/26 01:33:05;;;;;;;8.77;6.30;;;10.60;99.90;;;;;;5072649;28;20418;-82
2021/10/26 01:35:32;;;;;;;9.20;5.67;;;10.60;99.90;;;;;;5072947;28;20416;-81
2021/10/26 01:37:58;;;;;;;10.03;5.77;;;10.60;99.90;;;;;;5073070;28;20911;-82
2021/10/26 01:40:24;;;;;;;10.23;7.00;;;10.70;99.90;;;;;;5072653;28;20537;-82
2021/10/26 01:42:50;;;;;;;11.33;5.60;;;10.60;99.90;;;;;;5073000;28;20169;-82
2021/10/26 01:45:17;;;;;;;10.47;6.57;;;10.60;99.90;;;;;;5072491;28;20419;-82
2021/10/26 01:47:43;;;;;;;9.70;6.43;;;10.60;99.90;;;;;;5072954;28;20405;-83
2021/10/26 01:50:11;;;;;;;10.70;7.40;;;10.60;99.90;;;;;;5073049;28;20421;-82
2021/10/26 01:52:37;;;;;;;14.80;7.43;;;10.60;99.90;;;;;;5054707;28;20908;-83
2021/10/26 01:55:05;;;;;;;10.03;7.50;;;10.70;99.90;;;;;;5069657;28;20423;-82
2021/10/26 01:57:30;;;;;;;8.93;6.30;;;10.70;99.90;;;;;;5072845;28;20208;-82
2021/10/26 01:59:57;;;;;;;10.80;7.87;;;10.70;99.90;;;;;;5072344;28;20929;-83
2021/10/26 02:02:24;;;;;;;12.40;8.13;;;10.60;99.90;;;;;;5072923;28;20163;-82
2021/10/26 02:04:50;;;;;;;17.17;8.67;;;10.60;99.90;;;;;;5054802;28;20415;-82
2021/10/26 02:07:16;;;;;;;11.20;7.93;;;10.60;99.90;;;;;;5051626;28;20792;-82
2021/10/26 02:09:42;;;;;;;13.33;9.43;;;10.60;99.90;;;;;;5052793;28;20416;-83
2021/10/26 02:12:07;;;;;;;14.43;9.20;;;10.60;99.90;;;;;;5051569;28;20235;-83
2021/10/26 02:14:33;;;;;;;13.70;8.73;;;10.60;99.90;;;;;;5052387;28;20216;-82
2021/10/26 02:17:00;;;;;;;12.80;9.37;;;10.60;99.90;;;;;;5052353;28;20197;-82
2021/10/26 02:19:26;;;;;;;15.37;9.27;;;10.60;99.90;;;;;;5052627;28;20721;-82
2021/10/26 02:21:52;;;;;;;14.13;8.77;;;10.60;99.90;;;;;;5052597;28;20507;-83
2021/10/26 02:24:18;;;;;;;16.77;10.80;;;10.60;99.90;;;;;;5052639;28;20440;-82
2021/10/26 02:26:44;;;;;;;16.30;10.10;;;10.60;99.90;;;;;;5052613;28;20178;-83
2021/10/26 02:29:10;;;;;;;15.30;10.23;;;10.50;99.90;;;;;;5052628;28;20244;-83
2021/10/26 02:31:36;;;;;;;14.90;10.90;;;10.50;99.90;;;;;;5052285;28;20446;-82
2021/10/26 02:34:01;;;;;;;18.30;11.70;;;10.40;99.90;;;;;;5052552;28;20611;-83
2021/10/26 02:36:27;;;;;;;17.17;11.50;;;10.40;99.90;;;;;;5034580;28;20183;-82
2021/10/26 02:38:53;;;;;;;20.43;12.80;;;10.40;99.90;;;;;;5034711;28;20181;-84
2021/10/26 02:41:18;;;;;;;17.03;11.43;;;10.30;99.90;;;;;;5052273;28;20670;-83
2021/10/26 02:43:44;;;;;;;18.60;12.40;;;10.40;99.90;;;;;;5052307;28;20209;-83
2021/10/26 02:46:10;;;;;;;20.93;13.53;;;10.50;99.90;;;;;;5052241;28;20662;-85
2021/10/26 02:48:36;;;;;;;21.33;13.83;;;10.50;99.90;;;;;;5052399;28;20174;-84
2021/10/26 02:51:02;;;;;;;23.50;14.90;;;10.50;99.90;;;;;;5052430;28;20205;-83
2021/10/26 02:53:27;;;;;;;25.43;14.27;;;10.50;99.90;;;;;;5055544;28;20173;-83
2021/10/26 02:55:53;;;;;;;22.47;15.17;;;10.60;99.90;;;;;;5054841;28;20428;-84
2021/10/26 02:58:20;;;;;;;22.10;15.67;;;10.60;99.90;;;;;;5056094;28;20183;-83
2021/10/26 03:00:46;;;;;;;25.27;14.10;;;10.60;99.90;;;;;;5055645;28;20467;-83
2021/10/26 03:03:12;;;;;;;23.97;15.63;;;10.60;99.90;;;;;;5056138;28;20509;-84
2021/10/26 03:05:37;;;;;;;18.80;13.23;;;10.60;99.90;;;;;;5074626;28;20427;-83
2021/10/26 03:08:03;;;;;;;23.87;16.37;;;10.70;99.90;;;;;;5075974;28;20404;-83
2021/10/26 03:10:29;;;;;;;24.37;13.90;;;10.60;99.90;;;;;;5075892;28;20170;-84
2021/10/26 03:12:54;;;;;;;22.73;16.50;;;10.60;99.90;;;;;;5075849;28;20465;-84
2021/10/26 03:15:20;;;;;;;23.37;15.40;;;10.60;99.90;;;;;;5075473;28;20180;-82
2021/10/26 03:17:46;;;;;;;26.30;17.47;;;10.60;99.90;;;;;;5075800;28;20166;-82
2021/10/26 03:20:12;;;;;;;28.37;17.37;;;10.70;99.90;;;;;;5075715;28;20295;-83
2021/10/26 03:22:38;;;;;;;23.13;15.93;;;10.70;99.90;;;;;;5075710;28;20240;-83
2021/10/26 03:25:05;;;;;;;23.53;16.30;;;10.60;99.90;;;;;;5075724;28;20176;-83
2021/10/26 03:27:30;;;;;;;27.10;17.10;;;10.70;99.90;;;;;;5075518;28;20169;-83
2021/10/26 03:29:56;;;;;;;26.73;16.27;;;10.70;99.90;;;;;;5075172;28;20502;-83
2021/10/26 03:32:22;;;;;;;28.27;17.20;;;10.70;99.90;;;;;;5075566;28;20712;-83
2021/10/26 03:34:48;;;;;;;23.40;17.00;;;10.70;99.90;;;;;;5075479;28;20192;-83
2021/10/26 03:37:13;;;;;;;23.00;14.70;;;10.70;99.90;;;;;;5075446;28;20175;-82
2021/10/26 03:39:39;;;;;;;21.73;16.37;;;10.80;99.90;;;;;;5075307;28;20960;-82
2021/10/26 03:42:04;;;;;;;26.60;16.40;;;10.80;99.90;;;;;;5057613;28;20605;-82
2021/10/26 03:44:30;;;;;;;23.10;14.97;;;10.80;99.90;;;;;;5074786;28;20288;-82
2021/10/26 03:46:56;;;;;;;26.97;19.17;;;10.70;99.90;;;;;;5057223;28;20260;-82
2021/10/26 03:49:22;;;;;;;23.53;16.40;;;10.70;99.90;;;;;;5075306;28;20506;-83
2021/10/26 03:51:48;;;;;;;25.90;16.77;;;10.70;99.90;;;;;;5074665;28;20447;-83
2021/10/26 03:54:14;;;;;;;24.33;17.17;;;10.70;99.90;;;;;;5073383;28;20632;-82
2021/10/26 03:56:40;;;;;;;25.30;16.37;;;10.60;99.90;;;;;;5074616;28;20518;-82
2021/10/26 03:59:08;;;;;;;21.43;15.47;;;10.50;99.90;;;;;;5074471;28;20903;-82
2021/10/26 04:01:36;;;;;;;25.33;15.73;;;10.40;99.90;;;;;;5074685;28;20419;-83
2021/10/26 04:04:02;;;;;;;23.10;15.93;;;10.40;99.90;;;;;;5074725;28;20408;-82
2021/10/26 04:06:29;;;;;;;26.40;16.40;;;10.40;99.90;;;;;;5074981;28;20416;-82
2021/10/26 04:08:57;;;;;;;28.83;18.40;;;10.30;99.90;;;;;;5056862;28;20532;-82
2021/10/26 04:11:24;;;;;;;25.23;17.20;;;10.20;99.90;;;;;;5074820;28;20441;-82
2021/10/26 04:13:51;;;;;;;35.17;18.30;;;10.20;99.90;;;;;;5074659;28;20421;-83
2021/10/26 04:16:17;;;;;;;27.17;16.53;;;10.20;99.90;;;;;;5074242;28;20981;-82
2021/10/26 04:18:43;;;;;;;24.13;16.50;;;10.10;99.90;;;;;;5074664;28;20417;-82
2021/10/26 04:21:10;;;;;;;21.13;15.60;;;10.20;99.90;;;;;;5074479;28;20469;-84
2021/10/26 04:23:35;;;;;;;22.93;16.43;;;10.20;99.90;;;;;;5074511;28;20536;-84
2021/10/26 04:26:07;;;;;;;23.63;15.73;;;10.10;99.90;;;;;;5074128;28;20419;-84
2021/10/26 04:28:34;;;;;;;24.30;17.40;;;10.00;99.90;;;;;;5074447;28;20568;-84
2021/10/26 04:31:02;;;;;;;24.50;18.43;;;9.90;99.90;;;;;;5074039;28;20411;-83
2021/10/26 04:33:28;;;;;;;25.23;16.90;;;9.80;99.90;;;;;;5074336;28;20485;-83
2021/10/26 04:35:55;;;;;;;24.40;16.10;;;9.80;99.90;;;;;;5074360;28;20826;-83
2021/10/26 04:38:20;;;;;;;22.07;15.97;;;9.90;99.90;;;;;;5074254;28;20499;-84
2021/10/26 04:40:47;;;;;;;29.17;16.63;;;9.90;99.90;;;;;;5070836;28;20566;-84
2021/10/26 04:43:13;;;;;;;23.57;15.77;;;9.90;99.90;;;;;;5054795;28;20217;-84
2021/10/26 04:45:39;;;;;;;29.30;19.10;;;9.90;99.90;;;;;;5053984;28;20419;-84
2021/10/26 04:48:16;;;;;;;26.30;16.47;;;10.00;99.90;;;;;;5054211;28;20922;-84
2021/10/26 04:50:42;;;;;;;25.40;15.63;;;10.10;99.90;;;;;;5059287;28;20179;-85
2021/10/26 04:53:08;;;;;;;25.10;18.83;;;10.10;99.90;;;;;;5062299;28;20422;-85
2021/10/26 04:55:34;;;;;;;27.87;16.90;;;10.10;99.90;;;;;;5062640;28;20454;-84
2021/10/26 04:58:00;;;;;;;28.63;17.83;;;10.10;99.90;;;;;;5044238;28;20458;-83
2021/10/26 05:00:27;;;;;;;21.57;15.47;;;10.20;99.90;;;;;;5060959;28;20212;-83
2021/10/26 05:02:52;;;;;;;23.60;17.30;;;10.20;99.90;;;;;;5052658;28;20439;-83
2021/10/26 05:05:18;;;;;;;21.77;16.60;;;10.30;99.90;;;;;;5072570;28;20450;-83
2021/10/26 05:07:44;;;;;;;23.37;14.70;;;10.30;99.90;;;;;;5072633;28;20169;-83
2021/10/26 05:10:10;;;;;;;26.80;17.13;;;10.40;99.90;;;;;;5073730;28;20726;-83
2021/10/26 05:12:35;;;;;;;25.73;15.57;;;10.30;99.90;;;;;;5073745;28;20411;-83
2021/10/26 05:15:02;;;;;;;24.23;15.80;;;10.40;99.90;;;;;;5072820;28;20177;-83
2021/10/26 05:17:28;;;;;;;23.90;16.63;;;10.40;99.90;;;;;;5073759;28;20168;-84
2021/10/26 05:19:54;;;;;;;28.43;18.13;;;10.40;99.90;;;;;;5073622;28;20474;-83
2021/10/26 05:22:22;;;;;;;23.07;14.83;;;10.50;99.90;;;;;;5073638;28;20462;-83
2021/10/26 05:24:54;;;;;;;25.63;15.50;;;10.50;99.90;;;;;;5073507;28;20408;-83
2021/10/26 05:27:20;;;;;;;22.87;17.97;;;10.50;99.90;;;;;;5073543;28;20751;-83
2021/10/26 05:29:47;;;;;;;27.40;15.80;;;10.50;99.90;;;;;;5073180;28;20446;-83
2021/10/26 05:32:14;;;;;;;24.30;15.60;;;10.50;99.90;;;;;;5073489;28;20404;-84
2021/10/26 05:34:40;;;;;;;22.03;14.53;;;10.60;99.90;;;;;;5073399;28;20414;-82
2021/10/26 05:37:06;;;;;;;25.37;15.43;;;10.60;99.90;;;;;;5073356;28;20412;-81
2021/10/26 05:39:33;;;;;;;21.90;15.07;;;10.60;99.90;;;;;;5055312;28;20545;-82
2021/10/26 05:41:59;;;;;;;22.73;15.80;;;10.60;99.90;;;;;;5073312;28;20451;-82
2021/10/26 05:44:25;;;;;;;26.43;17.27;;;10.70;99.90;;;;;;5072728;28;20546;-83
2021/10/26 05:46:52;;;;;;;26.30;15.67;;;10.70;99.90;;;;;;5073245;28;20505;-82
2021/10/26 05:49:17;;;;;;;25.53;16.87;;;10.70;99.90;;;;;;5055296;28;20423;-82
2021/10/26 05:51:43;;;;;;;27.33;17.33;;;10.80;99.90;;;;;;5073169;28;20419;-82
2021/10/26 05:54:09;;;;;;;26.57;15.93;;;10.80;99.90;;;;;;5072833;28;20428;-82
2021/10/26 05:56:37;;;;;;;26.10;15.30;;;10.80;99.90;;;;;;5073103;28;20651;-82
2021/10/26 05:59:02;;;;;;;21.90;15.93;;;10.90;99.90;;;;;;5069865;28;20184;-82
2021/10/26 06:01:28;;;;;;;25.43;16.20;;;10.90;99.90;;;;;;5073044;28;20463;-82
2021/10/26 06:03:54;;;;;;;24.93;16.23;;;10.90;99.90;;;;;;5035089;28;20231;-82
2021/10/26 06:06:21;;;;;;;24.03;15.67;;;10.90;99.90;;;;;;5052904;28;20240;-81
2021/10/26 06:08:47;;;;;;;23.03;15.43;;;10.90;99.90;;;;;;5035322;28;20411;-82
2021/10/26 06:11:19;;;;;;;27.30;16.10;;;10.90;99.90;;;;;;5052895;28;20413;-82
2021/10/26 06:13:48;;;;;;;23.50;16.10;;;10.90;99.90;;;;;;5052867;28;20424;-82
2021/10/26 06:16:14;;;;;;;21.80;16.10;;;10.80;99.90;;;;;;5054632;28;20412;-82
2021/10/26 06:18:39;;;;;;;22.77;17.23;;;10.80;99.90;;;;;;5054965;28;20949;-82
2021/10/26 06:21:05;;;;;;;22.77;14.80;;;10.80;99.90;;;;;;5072839;28;20201;-82
2021/10/26 06:23:31;;;;;;;28.40;17.00;;;10.70;99.90;;;;;;5072811;28;20603;-81
2021/10/26 06:25:59;;;;;;;24.00;16.40;;;10.80;99.90;;;;;;5072923;28;20176;-82
2021/10/26 06:28:25;;;;;;;26.37;16.23;;;10.80;99.90;;;;;;5075539;28;20173;-83
2021/10/26 06:30:51;;;;;;;24.53;15.20;;;10.80;99.90;;;;;;5076598;28;20506;-82
2021/10/26 06:33:17;;;;;;;22.80;17.03;;;10.80;99.90;;;;;;5076928;28;20490;-82
2021/10/26 06:35:42;;;;;;;26.27;16.20;;;10.80;99.90;;;;;;5076878;28;20578;-82
2021/10/26 06:38:08;;;;;;;28.50;17.77;;;10.90;99.90;;;;;;5076862;28;20169;-83
2021/10/26 06:40:34;;;;;;;24.90;16.40;;;10.90;99.90;;;;;;5058705;28;20223;-83
2021/10/26 06:43:00;;;;;;;22.67;15.03;;;11.00;99.90;;;;;;5076718;28;20748;-82
2021/10/26 06:45:26;;;;;;;22.87;15.40;;;11.00;99.90;;;;;;5076069;28;20266;-82
2021/10/26 06:47:52;;;;;;;25.37;16.80;;;11.00;99.90;;;;;;5076410;28;20410;-83
2021/10/26 06:50:24;;;;;;;25.30;16.23;;;11.00;99.90;;;;;;5076510;28;20510;-82
2021/10/26 06:52:49;;;;;;;21.00;14.67;;;11.10;99.90;;;;;;5076436;28;20193;-83
2021/10/26 06:55:18;;;;;;;22.43;15.17;;;11.10;99.90;;;;;;5075617;28;20466;-83
2021/10/26 06:57:46;;;;;;;23.40;15.90;;;11.10;99.90;;;;;;5076342;28;20277;-83
2021/10/26 07:00:12;;;;;;;26.50;17.00;;;11.20;99.90;;;;;;5075840;28;20479;-83
2021/10/26 07:02:48;;;;;;;27.57;16.40;;;11.30;99.90;;;;;;5076035;28;20425;-83
2021/10/26 07:05:19;;;;;;;24.73;16.70;;;11.20;99.90;;;;;;5076126;28;20439;-83
2021/10/26 07:07:44;;;;;;;22.27;16.17;;;11.30;99.90;;;;;;5076111;28;20418;-83
2021/10/26 07:10:10;;;;;;;25.03;15.37;;;11.30;99.90;;;;;;5076123;28;20411;-83
2021/10/26 07:12:36;;;;;;;24.47;18.53;;;11.30;99.90;;;;;;5076125;28;20181;-83
2021/10/26 07:15:06;;;;;;;22.03;15.10;;;11.40;99.90;;;;;;5075735;28;20174;-82
2021/10/26 07:17:32;;;;;;;23.33;16.43;;;11.40;99.90;;;;;;5058059;28;20187;-83
2021/10/26 07:19:58;;;;;;;31.30;16.37;;;11.50;99.90;;;;;;5075944;28;20467;-82
2021/10/26 07:22:23;;;;;;;25.53;16.70;;;11.50;99.90;;;;;;5075975;28;20247;-83
2021/10/26 07:24:56;;;;;;;22.03;14.80;;;11.50;99.90;;;;;;5075895;28;20170;-83
2021/10/26 07:27:23;;;;;;;23.80;15.60;;;11.50;99.90;;;;;;5075861;28;20510;-83
2021/10/26 07:29:48;;;;;;;24.07;14.27;;;11.50;99.90;;;;;;5075409;28;20462;-83
2021/10/26 07:32:14;;;;;;;21.27;14.47;;;11.50;99.90;;;;;;5075828;28;20896;-83
2021/10/26 07:34:40;;;;;;;23.27;14.90;;;11.50;99.90;;;;;;5075630;28;20620;-83
2021/10/26 07:37:05;;;;;;;24.20;14.87;;;11.50;99.90;;;;;;5075613;28;20253;-83
2021/10/26 07:39:33;;;;;;;21.60;14.93;;;11.40;99.90;;;;;;5074589;28;20159;-84
2021/10/26 07:42:00;;;;;;;24.00;14.10;;;11.50;99.90;;;;;;5057558;28;20658;-84
2021/10/26 07:44:30;;;;;;;22.17;14.23;;;11.50;99.90;;;;;;5065078;28;20468;-86
2021/10/26 07:46:59;;;;;;;22.60;15.00;;;11.60;99.90;;;;;;5055188;28;20425;-84
2021/10/26 07:49:27;;;;;;;24.10;14.67;;;11.60;99.90;;;;;;5055151;28;20417;-86
2021/10/26 07:51:53;;;;;;;20.10;14.53;;;11.60;99.90;;;;;;5055114;28;20504;-86
2021/10/26 07:54:18;;;;;;;25.50;13.70;;;11.60;99.90;;;;;;5062041;28;20446;-83
2021/10/26 07:56:44;;;;;;;19.73;14.20;;;11.70;99.90;;;;;;5074774;28;20430;-82
2021/10/26 07:59:11;;;;;;;19.63;13.13;;;11.70;99.90;;;;;;5056781;28;20304;-84
2021/10/26 08:01:37;;;;;;;20.80;13.80;;;11.70;99.90;;;;;;5074842;28;20470;-83
2021/10/26 08:04:04;;;;;;;23.20;15.97;;;11.70;99.90;;;;;;5073258;28;20419;-82
2021/10/26 08:06:30;;;;;;;19.70;13.80;;;11.70;99.90;;;;;;5056759;28;20451;-82
2021/10/26 08:08:55;;;;;;;23.37;15.07;;;11.80;99.90;;;;;;5055325;28;20987;-82
2021/10/26 08:11:21;;;;;;;20.27;12.50;;;11.80;99.90;;;;;;5065671;28;20635;-82
2021/10/26 08:13:47;;;;;;;19.97;13.97;;;11.80;99.90;;;;;;5065489;28;20177;-82
2021/10/26 08:16:14;;;;;;;20.63;13.00;;;11.90;99.90;;;;;;5064085;28;20549;-82
2021/10/26 08:18:40;;;;;;;19.33;13.80;;;11.90;99.90;;;;;;5065240;28;20905;-84
2021/10/26 08:21:07;;;;;;;17.70;12.87;;;11.90;99.90;;;;;;5063553;28;20474;-84
2021/10/26 08:23:32;;;;;;;20.93;14.43;;;11.80;99.90;;;;;;5063941;28;20420;-84
2021/10/26 08:26:00;;;;;;;17.47;13.57;;;12.00;99.90;;;;;;5065206;28;20419;-83
2021/10/26 08:28:26;;;;;;;22.37;14.17;;;12.00;99.90;;;;;;5047062;28;20182;-83
2021/10/26 08:31:07;;;;;;;17.30;12.67;;;12.10;99.90;;;;;;5046354;28;21177;-84
2021/10/26 08:35:58;;;;;;;16.17;12.17;;;12.10;99.90;;;;;;5064892;28;20455;-84
2021/10/26 08:38:24;;;;;;;22.17;14.50;;;12.20;99.90;;;;;;5063099;28;20172;-82
2021/10/26 08:40:50;;;;;;;19.03;14.40;;;12.30;99.90;;;;;;5063810;28;20469;-83
2021/10/26 08:43:26;;;;;;;19.33;14.00;;;12.40;99.90;;;;;;5046605;28;20180;-83
2021/10/26 08:45:53;;;;;;;19.37;12.10;;;12.50;99.90;;;;;;5064241;28;20426;-83
2021/10/26 08:48:24;;;;;;;19.27;12.57;;;12.60;99.90;;;;;;5062917;28;20419;-91
2021/10/26 08:51:00;;;;;;;22.00;12.20;;;12.70;99.90;;;;;;5063550;28;20425;-82
2021/10/26 08:53:29;;;;;;;18.67;12.77;;;12.70;99.90;;;;;;5061113;28;20443;-82
2021/10/26 08:55:57;;;;;;;23.83;14.33;;;12.60;99.90;;;;;;5067946;28;20427;-83
2021/10/26 08:58:27;;;;;;;19.20;13.83;;;12.70;99.90;;;;;;5062070;28;20893;-82
2021/10/26 09:00:54;;;;;;;20.60;14.50;;;12.80;99.90;;;;;;5063127;28;20470;-84
2021/10/26 09:03:22;;;;;;;28.60;13.20;;;13.50;99.90;;;;;;5064501;28;21024;-84
2021/10/26 09:05:49;;;;;;;17.10;12.30;;;13.80;99.90;;;;;;5062951;28;20411;-84
2021/10/26 09:08:20;;;;;;;16.00;12.70;;;14.10;99.90;;;;;;5062856;28;20487;-87
2021/10/26 09:10:48;;;;;;;17.13;14.53;;;15.20;99.90;;;;;;5062299;28;20726;-85
2021/10/26 09:18:56;;;;;;;13.30;11.50;;;15.80;99.90;;;;;;5062721;28;20819;-87
2021/10/26 09:21:30;;;;;;;14.27;10.87;;;15.90;99.90;;;;;;5058851;28;21015;-87
2021/10/26 09:23:57;;;;;;;16.07;11.80;;;15.70;99.90;;;;;;5052602;28;20464;-88
2021/10/26 09:26:45;;;;;;;11.90;10.20;;;16.20;99.90;;;;;;5053349;28;20424;-85
2021/10/26 09:29:11;;;;;;;12.10;9.43;;;17.70;99.90;;;;;;5052912;28;21166;-83
2021/10/26 09:31:39;;;;;;;12.40;9.90;;;18.40;99.90;;;;;;5053331;28;20505;-84
2021/10/26 09:34:08;;;;;;;11.43;9.60;;;18.70;99.90;;;;;;5053748;28;20429;-86
2021/10/26 09:36:37;;;;;;;12.80;9.37;;;18.10;99.90;;;;;;5061442;28;20484;-84
2021/10/26 09:39:02;;;;;;;11.67;8.60;;;17.30;99.90;;;;;;5072622;28;20419;-83
2021/10/26 09:41:28;;;;;;;10.00;8.40;;;16.60;99.90;;;;;;5072795;28;20552;-84
2021/10/26 09:44:11;;;;;;;9.50;8.67;;;16.30;99.90;;;;;;5051065;28;20249;-84
2021/10/26 09:46:38;;;;;;;11.03;8.67;;;16.20;99.90;;;;;;5068237;28;20418;-82
2021/10/26 09:49:20;;;;;;;10.80;8.90;;;15.70;99.90;;;;;;5052919;28;20407;-82
2021/10/26 09:51:45;;;;;;;9.37;7.73;;;15.20;99.90;;;;;;5051668;28;20511;-83
2021/10/26 09:54:17;;;;;;;11.20;10.00;;;14.80;99.90;;;;;;5052782;28;20502;-83
2021/10/26 09:57:09;;;;;;;13.40;8.50;;;14.80;99.90;;;;;;5051714;28;20317;-84
2021/10/26 09:59:45;;;;;;;10.67;7.73;;;14.60;99.90;;;;;;5051228;28;20925;-84
2021/10/26 10:02:15;;;;;;;11.00;8.10;;;14.20;99.90;;;;;;5051461;28;20411;-84
2021/10/26 10:04:42;;;;;;;11.53;8.20;;;14.10;99.90;;;;;;5052770;28;20405;-86
2021/10/26 10:07:09;;;;;;;14.80;10.17;;;13.90;99.90;;;;;;5052683;28;20402;-84
2021/10/26 10:09:35;;;;;;;11.87;8.67;;;13.90;99.90;;;;;;5052665;28;20450;-86
2021/10/26 10:12:06;;;;;;;11.30;8.07;;;14.20;99.90;;;;;;5052700;28;20447;-83
2021/10/26 10:14:39;;;;;;;11.07;7.73;;;15.10;99.90;;;;;;5044249;28;20185;-88
2021/10/26 10:17:12;;;;;;;10.47;8.03;;;14.60;99.90;;;;;;5044924;28;20419;-85
2021/10/26 10:19:40;;;;;;;14.60;8.33;;;14.30;99.90;;;;;;5032611;28;20426;-87
2021/10/26 10:22:07;;;;;;;14.60;9.37;;;14.60;99.90;;;;;;5049828;28;20785;-84
2021/10/26 10:24:44;;;;;;;13.77;8.97;;;14.70;99.90;;;;;;5051284;28;20411;-85
2021/10/26 10:27:13;;;;;;;11.47;9.00;;;14.50;99.90;;;;;;5050028;28;20451;-89
2021/10/26 10:29:42;;;;;;;12.20;9.10;;;14.30;99.90;;;;;;5035328;28;20419;-87
2021/10/26 10:32:07;;;;;;;11.83;8.10;;;15.00;99.90;;;;;;5030469;28;20436;-85
2021/10/26 10:34:33;;;;;;;8.20;6.97;;;17.30;99.90;;;;;;5031586;28;20906;-84
2021/10/26 10:37:01;;;;;;;10.97;8.73;;;16.90;99.90;;;;;;5030228;28;20701;-84
2021/10/26 10:39:35;;;;;;;10.17;7.43;;;18.10;99.90;;;;;;5031656;28;20181;-86
2021/10/26 10:42:13;;;;;;;10.20;8.23;;;18.80;99.90;;;;;;5031508;28;20411;-84
2021/10/26 10:44:46;;;;;;;8.67;6.53;;;18.80;99.90;;;;;;5044112;28;20536;-85
2021/10/26 10:47:31;;;;;;;7.10;6.10;;;18.80;99.90;;;;;;5033486;28;20935;-84
2021/10/26 10:49:57;;;;;;;8.33;6.33;;;18.70;99.90;;;;;;5051210;28;20400;-84
2021/10/26 10:52:34;;;;;;;8.90;7.20;;;17.90;99.90;;;;;;5033516;28;20415;-86
2021/10/26 10:55:19;;;;;;;11.53;7.30;;;17.70;99.90;;;;;;5033612;28;20184;-86
2021/10/26 10:57:44;;;;;;;10.30;7.23;;;17.50;99.90;;;;;;5033072;28;20934;-88
2021/10/26 11:00:26;;;;;;;7.77;7.00;;;17.40;99.90;;;;;;5032849;28;20455;-86
2021/10/26 11:02:57;;;;;;;8.70;7.93;;;16.20;99.90;;;;;;5051283;28;20177;-84
2021/10/26 11:08:13;;;;;;;10.90;8.13;;;15.90;99.90;;;;;;5050689;28;21116;-83
2021/10/26 11:10:51;;;;;;;8.57;7.77;;;16.50;99.90;;;;;;5050633;28;20493;-83
2021/10/26 11:13:22;;;;;;;7.97;7.17;;;16.10;99.90;;;;;;5056569;28;20547;-84
2021/10/26 11:15:53;;;;;;;8.23;6.83;;;15.90;99.90;;;;;;5056653;28;20536;-83
2021/10/26 11:18:41;;;;;;;11.37;7.37;;;15.60;99.90;;;;;;5074901;28;20411;-85
2021/10/26 11:21:30;;;;;;;7.97;7.17;;;15.80;99.90;;;;;;5053426;28;20493;-86
2021/10/26 11:23:59;;;;;;;9.70;6.93;;;15.40;99.90;;;;;;5031591;28;20415;-87
2021/10/26 11:29:30;;;;;;;10.43;7.57;;;15.60;99.90;;;;;;5054628;28;20421;-88
2021/10/26 11:31:59;;;;;;;8.60;6.57;;;15.40;99.90;;;;;;5054821;28;20426;-87
2021/10/26 11:34:27;;;;;;;8.20;6.93;;;15.20;99.90;;;;;;5052928;28;20698;-86
2021/10/26 11:37:11;;;;;;;10.10;7.07;;;15.00;99.90;;;;;;5075182;28;20443;-86
2021/10/26 11:39:38;;;;;;;11.43;6.60;;;14.80;99.90;;;;;;5065727;28;20518;-85
2021/10/26 11:42:13;;;;;;;11.30;7.67;;;14.80;99.90;;;;;;5074563;28;20425;-87
2021/10/26 11:44:38;;;;;;;8.97;6.50;;;14.70;99.90;;;;;;5066467;28;20470;-83
2021/10/26 11:47:04;;;;;;;10.33;6.60;;;14.60;99.90;;;;;;5054817;28;20502;-83
2021/10/26 11:49:32;;;;;;;9.40;6.00;;;14.60;99.90;;;;;;5068962;28;20174;-84
2021/10/26 11:52:00;;;;;;;7.33;6.33;;;14.60;99.90;;;;;;5057213;28;20180;-83
2021/10/26 11:54:38;;;;;;;10.27;6.80;;;14.70;99.90;;;;;;5057010;28;20422;-83
2021/10/26 11:57:09;;;;;;;9.90;7.20;;;14.70;99.90;;;;;;5075152;28;20400;-83
2021/10/26 11:59:39;;;;;;;7.43;6.33;;;14.90;99.90;;;;;;5074636;28;20452;-83
2021/10/26 12:02:15;;;;;;;8.33;7.13;;;14.90;99.90;;;;;;5074963;28;20421;-83
2021/10/26 12:04:48;;;;;;;8.77;6.70;;;14.70;99.90;;;;;;5074976;28;20519;-83
2021/10/26 12:07:17;;;;;;;10.53;7.97;;;14.80;99.90;;;;;;5075066;28;20497;-83
2021/10/26 12:09:50;;;;;;;7.93;6.57;;;14.80;99.90;;;;;;5056772;28;20417;-84
2021/10/26 12:12:30;;;;;;;9.07;6.40;;;14.70;99.90;;;;;;5073458;28;20424;-83
2021/10/26 12:15:01;;;;;;;9.97;7.60;;;14.50;99.90;;;;;;5074374;28;20439;-84
2021/10/26 12:17:30;;;;;;;8.03;6.60;;;14.60;99.90;;;;;;5057001;28;20419;-84
2021/10/26 12:20:04;;;;;;;9.63;7.23;;;14.70;99.90;;;;;;5074584;28;20448;-83
2021/10/26 12:22:39;;;;;;;7.73;5.20;;;15.20;99.90;;;;;;5056632;28;20428;-84
2021/10/26 12:25:17;;;;;;;8.40;6.63;;;15.60;99.90;;;;;;5074380;28;20406;-84
2021/10/26 12:27:56;;;;;;;8.47;6.57;;;15.60;99.90;;;;;;5073011;28;20520;-84
2021/10/26 12:30:33;;;;;;;8.67;6.37;;;15.20;99.90;;;;;;5074280;28;20422;-84
2021/10/26 12:33:05;;;;;;;8.90;5.83;;;14.90;99.90;;;;;;5074426;28;20413;-83
2021/10/26 12:35:32;;;;;;;9.10;6.03;;;14.90;99.90;;;;;;5074159;28;20472;-85
2021/10/26 12:38:23;;;;;;;10.10;6.83;;;15.00;99.90;;;;;;5074118;28;20919;-82
2021/10/26 12:40:50;;;;;;;10.57;6.33;;;15.00;99.90;;;;;;5073848;28;20462;-83
2021/10/26 12:43:23;;;;;;;8.23;6.33;;;15.00;99.90;;;;;;5072288;28;20442;-84
2021/10/26 12:45:50;;;;;;;9.53;6.67;;;15.10;99.90;;;;;;5074068;28;20414;-84
2021/10/26 12:48:16;;;;;;;8.77;6.30;;;15.10;99.90;;;;;;5073965;28;20487;-83
2021/10/26 12:50:55;;;;;;;9.53;6.30;;;15.10;99.90;;;;;;5073844;28;20496;-83